createdAt,value
2023-03-19T00:00:12.751Z,5.60
2023-03-19T00:01:12.741Z,5.52
2023-03-19T00:02:17.920Z,5.45
2023-03-19T00:03:13.749Z,5.56
2023-03-19T00:04:12.687Z,5.45
2023-03-19T00:05:12.674Z,5.58
2023-03-19T00:06:12.671Z,5.52
2023-03-19T00:07:12.678Z,5.56
2023-03-19T00:08:12.682Z,5.40
2023-03-19T00:09:12.631Z,5.51
2023-03-19T00:10:12.631Z,5.47
2023-03-19T00:11:12.609Z,5.59
2023-03-19T00:12:12.608Z,5.51
2023-03-19T00:13:12.625Z,5.49
2023-03-19T00:14:12.610Z,5.49
2023-03-19T00:15:12.570Z,5.47
2023-03-19T00:16:12.692Z,5.38
2023-03-19T00:17:12.548Z,5.55
2023-03-19T00:18:12.538Z,5.41
2023-03-19T00:19:12.556Z,5.59
2023-03-19T00:20:12.574Z,5.44
2023-03-19T00:21:12.505Z,5.45
2023-03-19T00:22:12.501Z,5.56
2023-03-19T00:23:12.494Z,5.58
2023-03-19T00:24:12.475Z,5.56
2023-03-19T00:25:12.518Z,5.59
2023-03-19T00:26:12.468Z,5.47
2023-03-19T00:27:12.442Z,5.48
2023-03-19T00:28:12.434Z,5.38
2023-03-19T00:29:12.432Z,5.49
2023-03-19T00:30:12.422Z,5.41
2023-03-19T00:31:12.516Z,5.42
2023-03-19T00:32:12.417Z,5.45
2023-03-19T00:33:12.522Z,5.41
2023-03-19T00:34:12.384Z,5.56
2023-03-19T00:35:12.352Z,5.42
2023-03-19T00:36:12.384Z,5.52
2023-03-19T00:37:12.359Z,5.56
2023-03-19T00:38:12.326Z,5.44
2023-03-19T00:39:12.310Z,5.47
2023-03-19T00:40:12.326Z,5.51
2023-03-19T00:41:12.314Z,5.45
2023-03-19T00:42:12.291Z,5.38
2023-03-19T00:43:12.308Z,5.44
2023-03-19T00:44:12.258Z,5.45
2023-03-19T00:45:12.263Z,5.41
2023-03-19T00:46:12.267Z,5.38
2023-03-19T00:47:12.229Z,5.41
2023-03-19T00:48:12.239Z,5.47
2023-03-19T00:49:12.228Z,5.41
2023-03-19T00:50:12.205Z,5.35
2023-03-19T00:51:12.185Z,5.52
2023-03-19T00:52:12.170Z,5.37
2023-03-19T00:53:12.186Z,5.37
2023-03-19T00:54:12.153Z,5.38
2023-03-19T00:55:12.176Z,5.44
2023-03-19T00:56:12.131Z,5.47
2023-03-19T00:57:12.136Z,5.37
2023-03-19T00:58:12.141Z,5.40
2023-03-19T00:59:12.132Z,5.38
2023-03-19T01:00:12.101Z,5.37
2023-03-19T01:01:12.139Z,5.38
2023-03-19T01:02:12.109Z,5.35
2023-03-19T01:03:12.068Z,5.35
2023-03-19T01:04:12.150Z,5.38
2023-03-19T01:05:12.060Z,5.32
2023-03-19T01:06:12.059Z,5.30
2023-03-19T01:07:12.053Z,5.40
2023-03-19T01:08:11.991Z,5.37
2023-03-19T01:09:11.999Z,5.41
2023-03-19T01:10:11.974Z,5.40
2023-03-19T01:11:11.964Z,5.41
2023-03-19T01:12:11.948Z,5.30
2023-03-19T01:13:11.961Z,5.24
2023-03-19T01:14:11.945Z,5.41
2023-03-19T01:15:11.944Z,5.29
2023-03-19T01:16:11.917Z,5.37
2023-03-19T01:17:11.907Z,5.23
2023-03-19T01:18:11.890Z,5.26
2023-03-19T01:19:11.918Z,5.40
2023-03-19T01:20:11.886Z,5.30
2023-03-19T01:21:11.855Z,5.22
2023-03-19T01:22:11.845Z,5.23
2023-03-19T01:27:53.133Z,5.23
2023-03-19T01:28:53.097Z,5.26
2023-03-19T01:29:53.085Z,5.12
2023-03-19T01:30:53.168Z,5.22
2023-03-19T01:31:53.062Z,5.14
2023-03-19T01:32:53.114Z,5.15
2023-03-19T01:33:53.056Z,5.19
2023-03-19T01:34:53.049Z,5.19
2023-03-19T01:35:53.116Z,5.17
2023-03-19T01:36:53.015Z,5.14
2023-03-19T01:37:53.021Z,5.09
2023-03-19T01:38:53.006Z,5.19
2023-03-19T01:39:52.975Z,5.26
2023-03-19T01:40:52.969Z,5.12
2023-03-19T01:41:52.965Z,5.01
2023-03-19T01:42:52.981Z,4.99
2023-03-19T01:43:52.932Z,4.99
2023-03-19T01:44:52.939Z,5.06
2023-03-19T01:45:52.924Z,4.96
2023-03-19T01:46:52.903Z,5.05
2023-03-19T01:47:52.892Z,5.08
2023-03-19T01:48:52.909Z,5.02
2023-03-19T01:49:52.876Z,4.94
2023-03-19T01:50:52.876Z,4.91
2023-03-19T01:51:52.875Z,5.14
2023-03-19T01:52:52.837Z,5.08
2023-03-19T01:53:52.839Z,4.97
2023-03-19T01:54:52.830Z,5.01
2023-03-19T01:55:52.807Z,5.06
2023-03-19T01:56:52.810Z,4.99
2023-03-19T01:57:52.780Z,4.93
2023-03-19T01:58:52.776Z,4.96
2023-03-19T01:59:52.760Z,4.94
2023-03-19T02:00:52.770Z,4.94
2023-03-19T02:01:52.828Z,5.05
2023-03-19T02:02:52.730Z,4.96
2023-03-19T02:03:52.725Z,4.93
2023-03-19T02:04:52.775Z,4.99
2023-03-19T02:05:52.695Z,5.02
2023-03-19T02:06:52.719Z,5.01
2023-03-19T02:07:52.692Z,4.88
2023-03-19T02:08:52.664Z,4.99
2023-03-19T02:09:52.651Z,4.94
2023-03-19T02:10:52.667Z,4.88
2023-03-19T02:11:52.640Z,4.94
2023-03-19T02:12:52.655Z,5.01
2023-03-19T02:13:52.611Z,4.87
2023-03-19T02:14:52.598Z,4.90
2023-03-19T02:15:52.631Z,4.93
2023-03-19T02:16:52.596Z,4.79
2023-03-19T02:17:52.568Z,5.05
2023-03-19T02:18:52.572Z,4.91
2023-03-19T02:19:52.543Z,4.88
2023-03-19T02:20:52.536Z,4.84
2023-03-19T02:21:52.524Z,4.79
2023-03-19T02:22:52.523Z,4.93
2023-03-19T02:23:52.520Z,4.84
2023-03-19T02:24:52.513Z,4.87
2023-03-19T02:25:52.514Z,4.77
2023-03-19T02:26:52.484Z,4.90
2023-03-19T02:27:52.471Z,5.01
2023-03-19T02:28:52.446Z,4.84
2023-03-19T02:29:52.440Z,4.83
2023-03-19T02:30:52.446Z,4.74
2023-03-19T02:31:52.412Z,4.80
2023-03-19T02:32:52.449Z,5.02
2023-03-19T02:33:52.400Z,4.91
2023-03-19T02:34:52.386Z,4.90
2023-03-19T02:35:52.480Z,4.94
2023-03-19T02:36:52.397Z,4.86
2023-03-19T02:37:52.348Z,4.80
2023-03-19T02:38:52.339Z,4.80
2023-03-19T02:39:52.358Z,4.75
2023-03-19T02:40:52.319Z,4.72
2023-03-19T02:41:52.304Z,4.75
2023-03-19T02:42:52.322Z,4.71
2023-03-19T02:43:52.294Z,4.71
2023-03-19T02:44:52.277Z,4.71
2023-03-19T02:45:52.260Z,4.77
2023-03-19T02:46:52.298Z,4.74
2023-03-19T02:47:52.239Z,4.69
2023-03-19T02:48:52.271Z,4.59
2023-03-19T02:49:52.221Z,4.67
2023-03-19T02:50:52.219Z,4.65
2023-03-19T02:51:52.206Z,4.64
2023-03-19T02:52:52.180Z,4.62
2023-03-19T02:53:52.175Z,4.67
2023-03-19T02:54:52.211Z,4.75
2023-03-19T02:55:52.195Z,4.62
2023-03-19T02:56:52.142Z,4.68
2023-03-19T02:57:52.131Z,4.74
2023-03-19T02:58:52.134Z,4.71
2023-03-19T02:59:52.120Z,4.62
2023-03-19T03:00:52.208Z,4.61
2023-03-19T03:01:52.287Z,4.61
2023-03-19T03:02:52.081Z,4.62
2023-03-19T03:03:52.072Z,4.62
2023-03-19T03:04:52.073Z,4.62
2023-03-19T03:05:52.054Z,4.62
2023-03-19T03:06:52.058Z,4.65
2023-03-19T03:07:52.032Z,4.64
2023-03-19T03:08:52.028Z,4.59
2023-03-19T03:09:52.010Z,4.65
2023-03-19T03:10:52.009Z,4.64
2023-03-19T03:11:52.009Z,4.57
2023-03-19T03:12:51.989Z,4.59
2023-03-19T03:13:51.968Z,4.75
2023-03-19T03:14:51.961Z,4.57
2023-03-19T03:15:51.959Z,4.59
2023-03-19T03:16:51.934Z,4.65
2023-03-19T03:17:51.927Z,4.67
2023-03-19T03:18:51.925Z,4.62
2023-03-19T03:19:51.903Z,4.62
2023-03-19T03:20:51.893Z,4.74
2023-03-19T03:21:51.895Z,4.71
2023-03-19T03:22:51.876Z,4.62
2023-03-19T03:23:51.864Z,4.69
2023-03-19T03:24:51.862Z,4.75
2023-03-19T03:25:51.842Z,4.79
2023-03-19T03:26:51.833Z,4.65
2023-03-19T03:27:51.853Z,4.69
2023-03-19T03:28:51.820Z,4.68
2023-03-19T03:29:51.800Z,4.75
2023-03-19T03:30:51.806Z,4.64
2023-03-19T03:31:51.893Z,4.68
2023-03-19T03:32:51.800Z,4.72
2023-03-19T03:33:51.783Z,4.67
2023-03-19T03:34:51.774Z,4.61
2023-03-19T03:35:51.758Z,4.64
2023-03-19T03:36:51.746Z,4.71
2023-03-19T03:37:51.727Z,4.65
2023-03-19T03:38:51.700Z,4.65
2023-03-19T03:39:51.700Z,4.53
2023-03-19T03:40:51.695Z,4.62
2023-03-19T03:41:51.688Z,4.57
2023-03-19T03:42:51.657Z,4.61
2023-03-19T03:43:51.669Z,4.62
2023-03-19T03:44:51.634Z,4.64
2023-03-19T03:45:51.722Z,4.57
2023-03-19T03:46:51.623Z,4.53
2023-03-19T03:47:51.640Z,4.62
2023-03-19T03:48:51.598Z,4.62
2023-03-19T03:49:51.585Z,4.57
2023-03-19T03:50:51.596Z,4.62
2023-03-19T03:51:51.573Z,4.57
2023-03-19T03:52:51.557Z,4.50
2023-03-19T03:53:51.566Z,4.54
2023-03-19T03:54:51.530Z,4.47
2023-03-19T03:55:51.520Z,4.53
2023-03-19T03:56:51.513Z,4.42
2023-03-19T03:57:51.498Z,4.47
2023-03-19T03:58:51.513Z,4.46
2023-03-19T03:59:51.504Z,4.50
2023-03-19T04:00:51.470Z,4.57
2023-03-19T04:01:51.510Z,4.53
2023-03-19T04:02:51.480Z,4.53
2023-03-19T04:03:51.447Z,4.53
2023-03-19T04:04:51.432Z,4.44
2023-03-19T04:05:51.444Z,4.46
2023-03-19T04:06:51.399Z,4.42
2023-03-19T04:07:51.393Z,4.42
2023-03-19T04:08:51.377Z,4.49
2023-03-19T04:09:51.369Z,4.43
2023-03-19T04:10:51.370Z,4.38
2023-03-19T04:11:51.653Z,4.43
2023-03-19T04:12:51.349Z,4.31
2023-03-19T04:13:51.326Z,4.34
2023-03-19T04:14:51.314Z,4.21
2023-03-19T04:15:51.341Z,4.34
2023-03-19T04:16:51.351Z,4.31
2023-03-19T04:17:51.317Z,4.34
2023-03-19T04:18:51.269Z,4.31
2023-03-19T04:19:51.267Z,4.24
2023-03-19T04:20:51.250Z,4.13
2023-03-19T04:21:51.242Z,4.04
2023-03-19T04:22:51.230Z,4.10
2023-03-19T04:23:51.265Z,4.24
2023-03-19T04:24:51.206Z,4.10
2023-03-19T04:25:51.201Z,4.08
2023-03-19T04:26:51.185Z,4.04
2023-03-19T04:27:51.178Z,4.06
2023-03-19T04:28:51.179Z,3.96
2023-03-19T04:29:51.176Z,4.08
2023-03-19T04:30:51.200Z,4.13
2023-03-19T04:31:51.164Z,3.99
2023-03-19T04:32:51.163Z,4.18
2023-03-19T04:33:51.113Z,4.18
2023-03-19T04:34:51.100Z,4.25
2023-03-19T04:35:51.153Z,4.21
2023-03-19T04:36:51.103Z,4.07
2023-03-19T04:37:51.072Z,4.25
2023-03-19T04:38:51.057Z,4.14
2023-03-19T04:39:51.050Z,4.13
2023-03-19T04:40:51.034Z,4.02
2023-03-19T04:41:51.041Z,4.06
2023-03-19T04:42:51.029Z,4.02
2023-03-19T04:43:51.005Z,4.10
2023-03-19T04:44:50.989Z,4.07
2023-03-19T04:45:51.028Z,4.04
2023-03-19T04:46:50.969Z,3.98
2023-03-19T04:47:51.084Z,3.95
2023-03-19T04:48:50.948Z,3.98
2023-03-19T04:49:50.939Z,3.95
2023-03-19T04:50:50.927Z,3.92
2023-03-19T04:51:50.928Z,4.02
2023-03-19T04:52:50.905Z,4.14
2023-03-19T04:53:50.936Z,3.92
2023-03-19T04:54:50.885Z,3.88
2023-03-19T04:55:50.874Z,3.90
2023-03-19T04:56:50.873Z,3.82
2023-03-19T04:57:50.859Z,3.88
2023-03-19T04:58:50.839Z,3.89
2023-03-19T04:59:50.859Z,3.92
2023-03-19T05:00:50.816Z,3.86
2023-03-19T05:01:50.811Z,3.84
2023-03-19T05:02:50.795Z,3.90
2023-03-19T05:03:51.081Z,3.86
2023-03-19T05:04:50.773Z,3.90
2023-03-19T05:05:50.803Z,3.88
2023-03-19T05:06:50.752Z,3.86
2023-03-19T05:07:50.744Z,3.96
2023-03-19T05:08:50.733Z,3.93
2023-03-19T05:09:50.748Z,3.88
2023-03-19T05:10:50.715Z,3.95
2023-03-19T05:11:50.732Z,3.81
2023-03-19T05:12:50.689Z,3.80
2023-03-19T05:13:50.691Z,3.90
2023-03-19T05:14:50.665Z,3.86
2023-03-19T05:15:50.696Z,3.89
2023-03-19T05:16:50.649Z,3.90
2023-03-19T05:17:50.669Z,4.02
2023-03-19T05:18:50.670Z,3.95
2023-03-19T05:19:50.642Z,3.84
2023-03-19T05:20:50.614Z,3.93
2023-03-19T05:21:50.599Z,3.96
2023-03-19T05:22:50.580Z,3.98
2023-03-19T05:23:50.598Z,3.93
2023-03-19T05:24:50.558Z,3.96
2023-03-19T05:25:50.564Z,3.95
2023-03-19T05:26:50.553Z,3.98
2023-03-19T05:27:50.542Z,4.00
2023-03-19T05:28:50.531Z,3.96
2023-03-19T05:29:50.543Z,3.98
2023-03-19T05:30:50.521Z,3.96
2023-03-19T05:31:50.500Z,4.00
2023-03-19T05:32:50.513Z,4.13
2023-03-19T05:33:50.464Z,4.00
2023-03-19T05:34:50.449Z,4.14
2023-03-19T05:35:50.505Z,4.20
2023-03-19T05:36:50.435Z,4.14
2023-03-19T05:37:50.448Z,4.13
2023-03-19T05:38:50.409Z,4.10
2023-03-19T05:39:50.401Z,4.11
2023-03-19T05:40:50.385Z,4.11
2023-03-19T05:41:50.387Z,4.07
2023-03-19T05:42:50.376Z,4.16
2023-03-19T05:43:50.355Z,4.10
2023-03-19T05:44:50.343Z,4.18
2023-03-19T05:45:50.343Z,4.25
2023-03-19T05:46:50.381Z,4.13
2023-03-19T05:47:50.376Z,4.34
2023-03-19T05:48:50.322Z,4.11
2023-03-19T05:49:50.292Z,4.34
2023-03-19T05:50:50.277Z,4.36
2023-03-19T05:51:50.290Z,4.17
2023-03-19T05:52:50.258Z,4.18
2023-03-19T05:53:50.273Z,4.28
2023-03-19T05:54:50.232Z,4.31
2023-03-19T05:55:50.229Z,4.28
2023-03-19T05:56:50.212Z,4.44
2023-03-19T05:57:50.205Z,4.31
2023-03-19T05:58:50.211Z,4.42
2023-03-19T05:59:50.198Z,4.34
2023-03-19T06:00:50.179Z,4.43
2023-03-19T06:01:50.204Z,4.44
2023-03-19T06:02:50.200Z,4.39
2023-03-19T06:03:50.238Z,4.50
2023-03-19T06:04:50.125Z,4.65
2023-03-19T06:05:50.139Z,4.61
2023-03-19T06:06:50.113Z,4.56
2023-03-19T06:07:50.116Z,4.64
2023-03-19T06:08:50.081Z,4.51
2023-03-19T06:09:50.082Z,4.57
2023-03-19T06:10:50.074Z,4.57
2023-03-19T06:11:50.066Z,4.59
2023-03-19T06:12:50.046Z,4.64
2023-03-19T06:13:50.073Z,4.62
2023-03-19T06:14:50.084Z,4.67
2023-03-19T06:15:50.101Z,4.68
2023-03-19T06:16:50.040Z,4.57
2023-03-19T06:17:50.052Z,4.57
2023-03-19T06:18:49.973Z,4.62
2023-03-19T06:19:49.962Z,4.72
2023-03-19T06:20:49.951Z,4.86
2023-03-19T06:21:49.942Z,4.75
2023-03-19T06:22:49.945Z,4.80
2023-03-19T06:23:49.945Z,4.75
2023-03-19T06:24:49.913Z,4.91
2023-03-19T06:25:49.897Z,4.94
2023-03-19T06:26:49.885Z,4.96
2023-03-19T06:27:49.878Z,4.99
2023-03-19T06:28:49.891Z,5.05
2023-03-19T06:29:49.885Z,4.99
2023-03-19T06:30:49.843Z,5.04
2023-03-19T06:31:49.881Z,5.15
2023-03-19T06:32:49.876Z,5.14
2023-03-19T06:33:49.817Z,5.06
2023-03-19T06:34:49.813Z,5.17
2023-03-19T06:35:49.836Z,5.26
2023-03-19T06:36:49.785Z,5.38
2023-03-19T06:37:49.780Z,5.30
2023-03-19T06:38:49.770Z,5.38
2023-03-19T06:39:49.778Z,5.38
2023-03-19T06:40:49.738Z,5.30
2023-03-19T06:41:49.747Z,5.33
2023-03-19T06:42:49.719Z,5.33
2023-03-19T06:43:49.710Z,5.30
2023-03-19T06:44:52.315Z,5.30
2023-03-19T06:45:49.781Z,5.38
2023-03-19T06:46:49.681Z,5.37
2023-03-19T06:47:51.690Z,5.48
2023-03-19T06:48:49.670Z,5.62
2023-03-19T06:49:49.660Z,5.93
2023-03-19T06:50:49.635Z,5.98
2023-03-19T06:51:49.629Z,6.24
2023-03-19T06:52:49.613Z,6.39
2023-03-19T06:53:49.638Z,6.75
2023-03-19T06:54:49.592Z,6.93
2023-03-19T06:55:49.605Z,7.08
2023-03-19T06:56:49.568Z,7.19
2023-03-19T06:57:49.564Z,7.37
2023-03-19T06:58:49.546Z,7.47
2023-03-19T06:59:49.569Z,7.47
2023-03-19T07:00:49.534Z,7.50
2023-03-19T07:01:49.518Z,7.39
2023-03-19T07:02:49.536Z,7.70
2023-03-19T07:03:49.526Z,7.67
2023-03-19T07:04:49.478Z,7.54
2023-03-19T07:05:49.484Z,7.47
2023-03-19T07:06:49.462Z,7.14
2023-03-19T07:07:49.450Z,7.44
2023-03-19T07:08:49.449Z,7.57
2023-03-19T07:09:49.425Z,7.84
2023-03-19T07:10:49.429Z,7.99
2023-03-19T07:11:49.440Z,7.96
2023-03-19T07:12:49.397Z,8.02
2023-03-19T07:13:49.379Z,7.84
2023-03-19T07:14:49.381Z,7.76
2023-03-19T07:15:49.359Z,7.94
2023-03-19T07:16:49.420Z,8.17
2023-03-19T07:17:49.358Z,8.45
2023-03-19T07:18:49.329Z,8.54
2023-03-19T07:19:49.330Z,8.63
2023-03-19T07:20:49.313Z,8.80
2023-03-19T07:21:49.294Z,8.31
2023-03-19T07:22:49.289Z,8.36
2023-03-19T07:23:49.297Z,8.49
2023-03-19T07:24:49.267Z,8.54
2023-03-19T07:25:49.263Z,8.73
2023-03-19T07:26:49.250Z,8.65
2023-03-19T07:27:49.248Z,8.37
2023-03-19T07:28:49.218Z,8.37
2023-03-19T07:29:49.233Z,8.06
2023-03-19T07:30:49.213Z,8.17
2023-03-19T07:31:49.238Z,8.29
2023-03-19T07:32:49.202Z,8.45
2023-03-19T07:33:49.166Z,8.54
2023-03-19T07:34:49.162Z,8.71
2023-03-19T07:35:49.206Z,8.65
2023-03-19T07:36:49.149Z,8.50
2023-03-19T07:37:49.119Z,8.54
2023-03-19T07:38:49.124Z,8.50
2023-03-19T07:39:49.105Z,8.67
2023-03-19T07:41:01.413Z,9.06
2023-03-19T07:41:50.088Z,8.88
2023-03-19T07:42:49.070Z,8.65
2023-03-19T07:43:49.089Z,9.01
2023-03-19T07:44:49.052Z,9.20
2023-03-19T07:45:49.077Z,9.30
2023-03-19T07:46:49.023Z,9.35
2023-03-19T07:47:50.339Z,9.27
2023-03-19T07:48:49.004Z,9.22
2023-03-19T07:49:49.000Z,8.94
2023-03-19T07:50:49.002Z,8.73
2023-03-19T07:51:49.009Z,8.93
2023-03-19T07:52:49.112Z,9.03
2023-03-19T07:53:49.022Z,9.10
2023-03-19T07:54:48.940Z,9.15
2023-03-19T07:55:49.118Z,9.58
2023-03-19T07:56:48.914Z,9.35
2023-03-19T07:57:48.902Z,9.34
2023-03-19T07:58:48.929Z,9.23
2023-03-19T07:59:49.203Z,9.17
2023-03-19T08:00:48.907Z,9.41
2023-03-19T08:01:48.924Z,9.42
2023-03-19T08:02:48.885Z,9.70
2023-03-19T08:03:48.837Z,9.88
2023-03-19T08:04:48.873Z,9.98
2023-03-19T08:05:48.827Z,9.89
2023-03-19T08:06:48.803Z,10.06
2023-03-19T08:07:48.805Z,10.17
2023-03-19T08:08:48.783Z,9.98
2023-03-19T08:09:48.768Z,9.73
2023-03-19T08:10:48.772Z,9.86
2023-03-19T08:11:48.760Z,9.96
2023-03-19T08:12:48.749Z,10.09
2023-03-19T08:13:48.734Z,10.22
2023-03-19T08:14:48.719Z,9.73
2023-03-19T08:15:48.740Z,9.71
2023-03-19T08:16:48.737Z,9.60
2023-03-19T08:17:48.693Z,9.35
2023-03-19T08:18:50.288Z,9.58
2023-03-19T08:19:48.659Z,9.56
2023-03-19T08:20:48.658Z,9.50
2023-03-19T08:21:48.637Z,9.67
2023-03-19T08:22:48.647Z,9.59
2023-03-19T08:23:48.637Z,9.86
2023-03-19T08:24:48.681Z,9.92
2023-03-19T08:25:48.613Z,9.98
2023-03-19T08:26:48.627Z,10.14
2023-03-19T08:27:48.572Z,10.26
2023-03-19T08:28:48.566Z,10.25
2023-03-19T08:29:48.565Z,9.73
2023-03-19T08:30:48.559Z,9.78
2023-03-19T08:31:48.569Z,9.60
2023-03-19T08:32:48.553Z,9.71
2023-03-19T08:33:48.505Z,9.74
2023-03-19T08:34:49.741Z,9.75
2023-03-19T08:35:48.515Z,9.96
2023-03-19T08:36:48.476Z,10.20
2023-03-19T08:37:48.477Z,9.86
2023-03-19T08:38:48.452Z,9.73
2023-03-19T08:39:48.439Z,9.52
2023-03-19T08:40:48.452Z,9.12
2023-03-19T08:41:48.433Z,8.98
2023-03-19T08:42:48.411Z,8.83
2023-03-19T08:43:48.406Z,9.31
2023-03-19T08:44:48.388Z,9.53
2023-03-19T08:45:48.377Z,9.71
2023-03-19T08:46:48.403Z,9.86
2023-03-19T08:47:48.376Z,10.26
2023-03-19T08:48:48.344Z,10.42
2023-03-19T08:49:48.330Z,10.49
2023-03-19T08:50:48.322Z,10.44
2023-03-19T08:51:48.489Z,10.26
2023-03-19T08:52:48.323Z,10.88
2023-03-19T08:53:48.289Z,11.01
2023-03-19T08:54:48.289Z,10.98
2023-03-19T08:55:48.276Z,11.08
2023-03-19T08:56:48.257Z,11.28
2023-03-19T08:57:48.251Z,11.11
2023-03-19T08:58:48.248Z,11.11
2023-03-19T08:59:48.233Z,11.16
2023-03-19T09:00:48.215Z,10.62
2023-03-19T09:01:48.254Z,10.60
2023-03-19T09:02:48.204Z,10.49
2023-03-19T09:03:48.233Z,10.51
2023-03-19T09:04:48.208Z,10.47
2023-03-19T09:05:48.170Z,10.09
2023-03-19T09:06:48.149Z,9.81
2023-03-19T09:07:48.139Z,9.71
2023-03-19T09:08:48.128Z,9.38
2023-03-19T09:09:48.113Z,9.52
2023-03-19T09:10:49.864Z,9.38
2023-03-19T09:11:48.118Z,9.52
2023-03-19T09:12:48.672Z,9.77
2023-03-19T09:13:48.084Z,9.85
2023-03-19T09:14:48.062Z,9.88
2023-03-19T09:15:48.062Z,10.01
2023-03-19T09:16:48.107Z,10.14
2023-03-19T09:17:48.025Z,9.88
2023-03-19T09:18:48.014Z,9.73
2023-03-19T09:19:48.026Z,9.32
2023-03-19T09:20:47.992Z,9.04
2023-03-19T09:21:48.045Z,8.98
2023-03-19T09:22:48.010Z,8.97
2023-03-19T09:23:47.969Z,9.03
2023-03-19T09:24:47.951Z,9.16
2023-03-19T09:25:47.935Z,9.01
2023-03-19T09:26:47.929Z,9.03
2023-03-19T09:27:47.914Z,9.00
2023-03-19T09:28:47.957Z,9.03
2023-03-19T09:29:47.917Z,9.04
2023-03-19T09:30:47.884Z,9.15
2023-03-19T09:31:47.913Z,9.13
2023-03-19T09:32:47.891Z,9.15
2023-03-19T09:33:47.848Z,9.22
2023-03-19T09:34:47.862Z,9.26
2023-03-19T09:35:47.941Z,9.08
2023-03-19T09:36:47.816Z,9.26
2023-03-19T09:37:47.816Z,9.32
2023-03-19T09:38:47.805Z,8.94
2023-03-19T09:39:47.787Z,8.89
2023-03-19T09:40:47.777Z,8.85
2023-03-19T09:41:47.762Z,8.79
2023-03-19T09:42:47.756Z,9.06
2023-03-19T09:43:47.755Z,9.40
2023-03-19T09:44:47.734Z,9.50
2023-03-19T09:45:47.717Z,9.34
2023-03-19T09:46:47.791Z,9.38
2023-03-19T09:47:47.695Z,9.71
2023-03-19T09:48:47.690Z,9.65
2023-03-19T09:49:47.695Z,9.62
2023-03-19T09:50:47.677Z,9.60
2023-03-19T09:51:47.675Z,9.67
2023-03-19T09:52:47.643Z,9.67
2023-03-19T09:53:47.638Z,9.62
2023-03-19T09:54:47.633Z,9.12
2023-03-19T09:55:47.612Z,8.94
2023-03-19T09:56:47.612Z,8.96
2023-03-19T09:57:47.614Z,9.08
2023-03-19T09:58:47.582Z,9.27
2023-03-19T09:59:47.577Z,9.30
2023-03-19T10:00:47.560Z,9.15
2023-03-19T10:01:47.628Z,9.01
2023-03-19T10:02:47.539Z,9.26
2023-03-19T10:03:47.592Z,9.30
2023-03-19T10:04:47.533Z,9.41
2023-03-19T10:05:47.500Z,9.59
2023-03-19T10:06:47.490Z,9.37
2023-03-19T10:07:47.517Z,9.50
2023-03-19T10:08:47.470Z,9.49
2023-03-19T10:09:47.454Z,9.74
2023-03-19T10:10:47.456Z,9.85
2023-03-19T10:11:47.433Z,9.85
2023-03-19T10:12:47.460Z,9.78
2023-03-19T10:13:47.414Z,9.98
2023-03-19T10:14:47.404Z,10.24
2023-03-19T10:15:47.391Z,10.17
2023-03-19T10:16:47.391Z,10.11
2023-03-19T10:17:47.381Z,10.34
2023-03-19T10:18:47.767Z,10.36
2023-03-19T10:19:47.355Z,10.32
2023-03-19T10:20:47.338Z,10.58
2023-03-19T10:21:47.326Z,10.81
2023-03-19T10:22:47.341Z,10.80
2023-03-19T10:23:48.741Z,10.58
2023-03-19T10:24:47.304Z,10.16
2023-03-19T10:25:47.341Z,10.31
2023-03-19T10:26:47.272Z,10.38
2023-03-19T10:27:47.281Z,10.42
2023-03-19T10:28:47.251Z,10.49
2023-03-19T10:29:47.291Z,10.60
2023-03-19T10:30:47.229Z,10.80
2023-03-19T10:31:47.266Z,10.98
2023-03-19T10:32:47.268Z,11.30
2023-03-19T10:33:47.204Z,11.45
2023-03-19T10:34:47.191Z,11.09
2023-03-19T10:35:47.326Z,10.86
2023-03-19T10:36:47.167Z,11.02
2023-03-19T10:37:47.150Z,11.30
2023-03-19T10:38:47.144Z,11.12
2023-03-19T10:39:47.161Z,11.11
2023-03-19T10:40:47.125Z,11.26
2023-03-19T10:41:47.158Z,11.35
2023-03-19T10:42:47.104Z,11.13
2023-03-19T10:43:47.088Z,11.02
2023-03-19T10:44:47.084Z,11.01
2023-03-19T10:45:47.275Z,10.81
2023-03-19T10:46:47.069Z,11.12
2023-03-19T10:47:47.076Z,11.11
2023-03-19T10:48:47.056Z,11.08
2023-03-19T10:49:47.024Z,11.17
2023-03-19T10:50:47.020Z,11.28
2023-03-19T10:51:47.005Z,11.45
2023-03-19T10:52:47.016Z,11.56
2023-03-19T10:53:47.001Z,11.62
2023-03-19T10:54:46.974Z,11.28
2023-03-19T10:55:46.990Z,11.53
2023-03-19T10:56:46.969Z,11.70
2023-03-19T10:57:46.945Z,11.75
2023-03-19T10:58:46.943Z,11.42
2023-03-19T10:59:46.922Z,11.51
2023-03-19T11:00:46.926Z,11.35
2023-03-19T11:01:46.948Z,11.33
2023-03-19T11:02:46.890Z,11.02
2023-03-19T11:03:46.950Z,10.94
2023-03-19T11:04:46.866Z,11.02
2023-03-19T11:05:46.853Z,11.26
2023-03-19T11:06:46.853Z,11.27
2023-03-19T11:07:46.885Z,11.09
2023-03-19T11:08:46.823Z,11.53
2023-03-19T11:09:46.830Z,11.82
2023-03-19T11:10:46.804Z,11.53
2023-03-19T11:11:49.117Z,11.46
2023-03-19T11:12:46.780Z,11.62
2023-03-19T11:13:46.773Z,11.44
2023-03-19T11:14:46.760Z,11.41
2023-03-19T11:15:46.758Z,11.63
2023-03-19T11:16:46.753Z,11.57
2023-03-19T11:17:46.720Z,11.57
2023-03-19T11:18:46.724Z,11.85
2023-03-19T11:19:46.710Z,11.84
2023-03-19T11:20:46.693Z,12.00
2023-03-19T11:21:46.679Z,12.12
2023-03-19T11:22:46.666Z,11.97
2023-03-19T11:23:46.660Z,11.79
2023-03-19T11:24:46.653Z,12.04
2023-03-19T11:25:46.652Z,12.04
2023-03-19T11:26:46.619Z,11.67
2023-03-19T11:27:46.633Z,11.78
2023-03-19T11:28:46.597Z,11.69
2023-03-19T11:29:46.588Z,11.84
2023-03-19T11:30:46.585Z,12.04
2023-03-19T11:31:46.648Z,12.07
2023-03-19T11:32:46.681Z,12.04
2023-03-19T11:33:46.559Z,11.84
2023-03-19T11:34:46.545Z,11.39
2023-03-19T11:35:46.542Z,11.36
2023-03-19T11:36:46.509Z,11.28
2023-03-19T11:37:46.514Z,11.41
2023-03-19T11:38:46.495Z,11.11
2023-03-19T11:39:46.477Z,10.94
2023-03-19T11:40:46.470Z,11.27
2023-03-19T11:41:46.466Z,11.03
2023-03-19T11:42:46.452Z,11.09
2023-03-19T11:43:46.462Z,11.09
2023-03-19T11:44:46.430Z,11.12
2023-03-19T11:45:46.572Z,11.17
2023-03-19T11:46:46.402Z,11.06
2023-03-19T11:47:46.389Z,10.93
2023-03-19T11:48:46.386Z,11.06
2023-03-19T11:49:46.389Z,11.30
2023-03-19T11:50:48.256Z,11.24
2023-03-19T11:51:46.343Z,11.21
2023-03-19T11:52:46.331Z,11.12
2023-03-19T11:53:46.336Z,11.16
2023-03-19T11:54:46.312Z,11.09
2023-03-19T11:55:46.352Z,11.20
2023-03-19T11:56:46.314Z,11.09
2023-03-19T11:57:46.316Z,11.13
2023-03-19T11:58:46.265Z,11.28
2023-03-19T11:59:46.278Z,11.20
2023-03-19T12:00:46.243Z,11.31
2023-03-19T12:01:46.264Z,11.30
2023-03-19T12:02:46.252Z,11.24
2023-03-19T12:03:46.263Z,11.27
2023-03-19T12:04:46.197Z,11.06
2023-03-19T12:05:46.258Z,11.23
2023-03-19T12:06:46.186Z,11.31
2023-03-19T12:07:46.191Z,11.38
2023-03-19T12:08:46.155Z,11.16
2023-03-19T12:09:46.148Z,11.13
2023-03-19T12:10:46.150Z,11.21
2023-03-19T12:11:46.126Z,11.51
2023-03-19T12:12:46.110Z,11.51
2023-03-19T12:13:46.117Z,11.74
2023-03-19T12:14:46.087Z,11.75
2023-03-19T12:15:46.192Z,11.63
2023-03-19T12:16:46.696Z,11.78
2023-03-19T12:17:46.086Z,11.75
2023-03-19T12:18:46.054Z,11.69
2023-03-19T12:19:46.140Z,11.39
2023-03-19T12:20:46.024Z,11.53
2023-03-19T12:21:46.014Z,11.45
2023-03-19T12:22:45.999Z,11.21
2023-03-19T12:23:45.992Z,11.30
2023-03-19T12:24:45.986Z,11.53
2023-03-19T12:25:46.027Z,11.54
2023-03-19T12:26:45.960Z,11.60
2023-03-19T12:27:45.961Z,11.28
2023-03-19T12:28:45.932Z,11.48
2023-03-19T12:29:45.931Z,11.49
2023-03-19T12:30:45.948Z,11.63
2023-03-19T12:31:45.937Z,11.57
2023-03-19T12:32:45.949Z,11.74
2023-03-19T12:33:45.881Z,11.66
2023-03-19T12:34:45.862Z,11.63
2023-03-19T12:35:45.877Z,11.62
2023-03-19T12:36:45.854Z,11.57
2023-03-19T12:37:45.852Z,11.53
2023-03-19T12:38:45.846Z,11.64
2023-03-19T12:39:45.819Z,11.56
2023-03-19T12:40:45.798Z,11.54
2023-03-19T12:41:45.784Z,11.35
2023-03-19T12:42:45.787Z,11.30
2023-03-19T12:43:45.787Z,11.31
2023-03-19T12:44:45.752Z,11.33
2023-03-19T12:45:45.748Z,11.42
2023-03-19T12:46:45.798Z,11.39
2023-03-19T12:47:45.754Z,11.16
2023-03-19T12:48:45.724Z,11.05
2023-03-19T12:49:45.721Z,11.38
2023-03-19T12:50:45.682Z,11.13
2023-03-19T12:51:45.674Z,11.36
2023-03-19T12:52:45.658Z,11.35
2023-03-19T12:53:45.652Z,11.19
2023-03-19T12:54:45.637Z,11.20
2023-03-19T12:55:45.652Z,11.21
2023-03-19T12:56:45.635Z,11.13
2023-03-19T12:57:45.609Z,11.09
2023-03-19T12:58:45.595Z,11.13
2023-03-19T12:59:45.605Z,11.03
2023-03-19T13:00:45.571Z,11.17
2023-03-19T13:01:45.700Z,11.21
2023-03-19T13:02:45.575Z,11.11
2023-03-19T13:03:45.561Z,11.06
2023-03-19T13:04:45.543Z,11.17
2023-03-19T13:05:45.531Z,11.13
2023-03-19T13:06:45.503Z,11.16
2023-03-19T13:07:45.512Z,11.17
2023-03-19T13:08:45.482Z,11.35
2023-03-19T13:09:45.488Z,11.13
2023-03-19T13:10:45.459Z,11.24
2023-03-19T13:11:45.452Z,11.21
2023-03-19T13:12:45.435Z,11.01
2023-03-19T13:13:45.441Z,11.05
2023-03-19T13:14:45.414Z,11.02
2023-03-19T13:15:45.457Z,10.90